Главная страница
METAR-TAF:

METAR-TAF

Аэропорты :

Порт-Морсби, Папуа - Новая Гвинея

широта: 09-26S, долгота: 147-13E, высота над уровнем моря: 38 м

Текущие метеонаблюдения

Эта сводка был подготовлена 38 минут назад, в 03:00 UTC
Ветер 15 Узел от юго-юго-восточный
Температура 30°C
Влажность 59%
Давление 1012 hPa
Видимость 10 км и более
небольшая облачность на высоте 3000 фута
небольшая облачность на высоте 5000 фута
мгла

METAR: AYPY 150300Z 15015KT 9999 HZ FEW030 FEW050 30/21 Q1012

Время: 13:38 (03:38 UTC)

Прогноз

Эта сводка был подготовлена 5 часа и 13 минут назад, в 22:25 UTC
Прогноз действительный с 15-го 00 UTC до 15-го 24 UTC
Ветер 10 Узел от юго-юго-восточный
Видимость 10 км и более
Отдельные облака на высоте 2000 фута
Отдельные облака на высоте 14000 фута
С 15-го 0500 UTC
Ветер 15 Узел от юго-юго-восточный
Видимость 10 км и более
Отдельные облака на высоте 2000 фута
Отдельные облака на высоте 4000 фута

TAF: AYPY 142225Z 1500/1524 15010KT 9999 SCT020 SCT140 FM150500 16015KT 9999 SCT020 SCT040

Метеонаблюдения и прогнозы для более 4000 аэропортов (сводки METAR и TAF).

Имеющиеся станции представлены на карте желтыми и красными точками.

Чтобы увидеть название станции, наведите на нее мышь.

Затем щелкните, чтобы увидеть метеонаблюдения и метеопрогнозы.

Управление картой: чтобы увеличить масштаб, щелкните зеленые кнопки с черным крестиком; чтобы уменьшить масштаб, щелкните зеленую кнопку с тире; для просмотра соседних карт щелкайте зеленые стрелки.


METAR-TAF: